Terminal Aerodrome Forecast
Issued by NWS

Home | Current Version | Previous Version | Text Only | Print | Product List | Glossary On
Versions: 1 2 3 4 5 6 7 8 9 10 11 12 13 14 15 16 17
405
FTUS43 KABR 061601 AAB
TAFATY
TAF AMD
KATY 061601Z 0616/0712 25014KT P6SM SCT050
     FM062200 30013KT P6SM SCT250
     FM070100 01012KT P6SM SCT250=

USA.gov is the U.S. government's official web portal to all federal, state and local government web resources and services.